首页
METAR-TAF:

METAR-TAF

机场 :

德兰, 佛罗里达州, 美国

纬度: 29-04-01N, 经度: 081-17-02W, 海拔: 24米

当前天气观测

该预报发布于39分钟前的15:30 UTC
风速4节,风向
温度 30°C
湿度 62%
气压 1016 hPa
能見度: 16.1公里
阴天层高于12000英尺

METAR: KDED 241530Z AUTO 18004KT 10SM OVC120 30/22 A3001 RMK AO2 T02970219

时间: 12:09 (16:09 UTC)


TAF: 丢失

超过4000个机场的气象观测和天气预报(METAR&TAF报告)。

可查询的气象台以黄色和红色小点在地图上表示。

将鼠标移到小点上方,可查看气象台名称。

然后点击查看天气观测和预报。

如需切换地图:点击带黑十字的绿色按钮放大地图;点击带横线的绿色按钮缩小地图;或者点击绿色箭头查看邻近地区的地图。


METAR-TAF: